sensor_id;sensor_type;location;lat;lon;timestamp;pressure;altitude;pressure_sealevel;temperature;humidity
10127;BME280;13080;42.608;23.362;2023-02-16T00:01:00;150446.22;;;-2.63;100.00
10127;BME280;13080;42.608;23.362;2023-02-16T00:03:27;150441.06;;;-2.65;100.00
10127;BME280;13080;42.608;23.362;2023-02-16T00:05:54;150444.94;;;-2.64;100.00
10127;BME280;13080;42.608;23.362;2023-02-16T00:08:21;150455.22;;;-2.60;100.00
10127;BME280;13080;42.608;23.362;2023-02-16T00:10:48;150459.06;;;-2.58;100.00
10127;BME280;13080;42.608;23.362;2023-02-16T00:13:30;150464.19;;;-2.56;100.00
10127;BME280;13080;42.608;23.362;2023-02-16T00:16:15;150464.19;;;-2.56;100.00
10127;BME280;13080;42.608;23.362;2023-02-16T00:18:42;150464.19;;;-2.56;100.00
10127;BME280;13080;42.608;23.362;2023-02-16T00:21:09;150461.66;;;-2.57;100.00
10127;BME280;13080;42.608;23.362;2023-02-16T00:23:36;150468.06;;;-2.55;100.00
10127;BME280;13080;42.608;23.362;2023-02-16T00:26:03;150480.91;;;-2.49;100.00
10127;BME280;13080;42.608;23.362;2023-02-16T00:28:31;150474.50;;;-2.52;100.00
10127;BME280;13080;42.608;23.362;2023-02-16T00:30:58;150477.09;;;-2.51;100.00
10127;BME280;13080;42.608;23.362;2023-02-16T00:33:25;150469.34;;;-2.54;100.00
10127;BME280;13080;42.608;23.362;2023-02-16T00:35:51;150466.78;;;-2.55;100.00
10127;BME280;13080;42.608;23.362;2023-02-16T00:38:18;150465.47;;;-2.56;100.00
10127;BME280;13080;42.608;23.362;2023-02-16T00:40:45;150459.06;;;-2.58;100.00
10127;BME280;13080;42.608;23.362;2023-02-16T00:43:23;150450.09;;;-2.62;100.00
10127;BME280;13080;42.608;23.362;2023-02-16T00:45:52;150442.34;;;-2.65;100.00
10127;BME280;13080;42.608;23.362;2023-02-16T00:48:19;150442.34;;;-2.65;100.00
10127;BME280;13080;42.608;23.362;2023-02-16T00:50:46;150428.25;;;-2.70;100.00
10127;BME280;13080;42.608;23.362;2023-02-16T00:53:13;150423.09;;;-2.73;100.00
10127;BME280;13080;42.608;23.362;2023-02-16T00:55:41;150417.97;;;-2.75;100.00
10127;BME280;13080;42.608;23.362;2023-02-16T00:58:14;150421.84;;;-2.73;100.00
10127;BME280;13080;42.608;23.362;2023-02-16T01:00:41;150434.66;;;-2.68;100.00
10127;BME280;13080;42.608;23.362;2023-02-16T01:03:13;150417.97;;;-2.75;100.00
10127;BME280;13080;42.608;23.362;2023-02-16T01:05:41;150414.09;;;-2.76;100.00
10127;BME280;13080;42.608;23.362;2023-02-16T01:08:09;150405.13;;;-2.80;100.00
10127;BME280;13080;42.608;23.362;2023-02-16T01:10:54;150397.38;;;-2.83;100.00
10127;BME280;13080;42.608;23.362;2023-02-16T01:13:38;150385.84;;;-2.87;100.00
10127;BME280;13080;42.608;23.362;2023-02-16T01:16:11;150383.28;;;-2.88;100.00
10127;BME280;13080;42.608;23.362;2023-02-16T01:18:40;150383.28;;;-2.88;100.00
10127;BME280;13080;42.608;23.362;2023-02-16T01:21:06;150376.88;;;-2.91;100.00
10127;BME280;13080;42.608;23.362;2023-02-16T01:23:34;150366.59;;;-2.95;100.00
10127;BME280;13080;42.608;23.362;2023-02-16T01:26:01;150352.44;;;-3.01;100.00
10127;BME280;13080;42.608;23.362;2023-02-16T01:28:28;150352.44;;;-3.01;100.00
10127;BME280;13080;42.608;23.362;2023-02-16T01:30:55;150338.34;;;-3.06;100.00
10127;BME280;13080;42.608;23.362;2023-02-16T01:33:22;150334.47;;;-3.08;100.00
10127;BME280;13080;42.608;23.362;2023-02-16T01:35:51;150344.75;;;-3.04;100.00
10127;BME280;13080;42.608;23.362;2023-02-16T01:38:20;150364.00;;;-2.96;100.00
10127;BME280;13080;42.608;23.362;2023-02-16T01:40:54;150351.16;;;-3.01;100.00
10127;BME280;13080;42.608;23.362;2023-02-16T01:43:29;150348.59;;;-3.02;100.00
10127;BME280;13080;42.608;23.362;2023-02-16T01:46:02;150342.19;;;-3.05;100.00
10127;BME280;13080;42.608;23.362;2023-02-16T01:48:32;150333.19;;;-3.08;100.00
10127;BME280;13080;42.608;23.362;2023-02-16T01:51:05;150328.03;;;-3.10;100.00
10127;BME280;13080;42.608;23.362;2023-02-16T01:53:39;150317.75;;;-3.15;100.00
10127;BME280;13080;42.608;23.362;2023-02-16T01:56:16;150302.34;;;-3.21;100.00
10127;BME280;13080;42.608;23.362;2023-02-16T01:58:47;150311.34;;;-3.17;100.00
10127;BME280;13080;42.608;23.362;2023-02-16T02:04:18;150297.25;;;-3.23;100.00
10127;BME280;13080;42.608;23.362;2023-02-16T02:07:05;150301.06;;;-3.21;100.00
10127;BME280;13080;42.608;23.362;2023-02-16T02:09:37;150293.38;;;-3.24;100.00
10127;BME280;13080;42.608;23.362;2023-02-16T02:12:15;150286.97;;;-3.27;100.00
10127;BME280;13080;42.608;23.362;2023-02-16T02:14:44;150281.81;;;-3.29;100.00
10127;BME280;13080;42.608;23.362;2023-02-16T02:17:15;150288.25;;;-3.26;100.00
10127;BME280;13080;42.608;23.362;2023-02-16T02:19:53;150285.66;;;-3.27;100.00
10127;BME280;13080;42.608;23.362;2023-02-16T02:23:10;150281.81;;;-3.29;100.00
10127;BME280;13080;42.608;23.362;2023-02-16T02:32:17;150265.13;;;-3.36;100.00
10127;BME280;13080;42.608;23.362;2023-02-16T02:34:57;150253.56;;;-3.40;100.00
10127;BME280;13080;42.608;23.362;2023-02-16T02:37:32;150239.44;;;-3.46;100.00
10127;BME280;13080;42.608;23.362;2023-02-16T02:40:09;150247.16;;;-3.43;100.00
10127;BME280;13080;42.608;23.362;2023-02-16T02:42:44;150253.56;;;-3.40;100.00
10127;BME280;13080;42.608;23.362;2023-02-16T02:45:16;150247.16;;;-3.43;100.00
10127;BME280;13080;42.608;23.362;2023-02-16T02:47:46;150243.31;;;-3.44;100.00
10127;BME280;13080;42.608;23.362;2023-02-16T02:50:37;150239.44;;;-3.46;100.00
10127;BME280;13080;42.608;23.362;2023-02-16T02:53:08;150239.44;;;-3.46;100.00
10127;BME280;13080;42.608;23.362;2023-02-16T02:55:41;150236.88;;;-3.47;100.00
10127;BME280;13080;42.608;23.362;2023-02-16T02:58:30;150242.03;;;-3.45;100.00
10127;BME280;13080;42.608;23.362;2023-02-16T03:01:32;150272.81;;;-3.32;100.00
10127;BME280;13080;42.608;23.362;2023-02-16T03:04:03;150250.97;;;-3.41;100.00
10127;BME280;13080;42.608;23.362;2023-02-16T03:06:33;150243.31;;;-3.44;100.00
10127;BME280;13080;42.608;23.362;2023-02-16T03:09:05;150231.75;;;-3.49;100.00
10127;BME280;13080;42.608;23.362;2023-02-16T03:11:33;150224.06;;;-3.52;100.00
10127;BME280;13080;42.608;23.362;2023-02-16T03:14:20;150213.78;;;-3.56;100.00
10127;BME280;13080;42.608;23.362;2023-02-16T03:16:49;150195.78;;;-3.63;100.00
10127;BME280;13080;42.608;23.362;2023-02-16T03:19:39;150193.22;;;-3.64;100.00
10127;BME280;13080;42.608;23.362;2023-02-16T03:22:24;150191.97;;;-3.65;100.00
10127;BME280;13080;42.608;23.362;2023-02-16T03:25:08;150197.09;;;-3.63;100.00
10127;BME280;13080;42.608;23.362;2023-02-16T03:27:54;150198.38;;;-3.62;100.00
10127;BME280;13080;42.608;23.362;2023-02-16T03:30:40;150193.22;;;-3.64;100.00
10127;BME280;13080;42.608;23.362;2023-02-16T03:33:08;150186.81;;;-3.67;100.00
10127;BME280;13080;42.608;23.362;2023-02-16T03:35:36;150189.38;;;-3.66;100.00
10127;BME280;13080;42.608;23.362;2023-02-16T03:38:04;150193.22;;;-3.64;100.00
10127;BME280;13080;42.608;23.362;2023-02-16T03:40:31;150185.53;;;-3.67;100.00
10127;BME280;13080;42.608;23.362;2023-02-16T03:43:01;150181.69;;;-3.69;100.00
10127;BME280;13080;42.608;23.362;2023-02-16T03:45:29;150179.13;;;-3.70;100.00
10127;BME280;13080;42.608;23.362;2023-02-16T03:47:56;150181.69;;;-3.69;100.00
10127;BME280;13080;42.608;23.362;2023-02-16T03:50:23;150179.13;;;-3.70;100.00
10127;BME280;13080;42.608;23.362;2023-02-16T03:52:53;150170.13;;;-3.73;100.00
10127;BME280;13080;42.608;23.362;2023-02-16T03:55:31;150174.00;;;-3.72;100.00
10127;BME280;13080;42.608;23.362;2023-02-16T03:57:57;150174.00;;;-3.72;100.00
10127;BME280;13080;42.608;23.362;2023-02-16T04:00:24;150167.53;;;-3.74;100.00
10127;BME280;13080;42.608;23.362;2023-02-16T04:02:51;150166.25;;;-3.75;100.00
10127;BME280;13080;42.608;23.362;2023-02-16T04:05:18;150168.84;;;-3.74;100.00
10127;BME280;13080;42.608;23.362;2023-02-16T04:07:45;150154.72;;;-3.80;100.00
10127;BME280;13080;42.608;23.362;2023-02-16T04:10:14;150161.13;;;-3.77;100.00
10127;BME280;13080;42.608;23.362;2023-02-16T04:12:41;150161.13;;;-3.77;100.00
10127;BME280;13080;42.608;23.362;2023-02-16T04:15:08;150154.72;;;-3.80;100.00
10127;BME280;13080;42.608;23.362;2023-02-16T04:17:35;150154.72;;;-3.80;100.00
10127;BME280;13080;42.608;23.362;2023-02-16T04:20:03;150136.75;;;-3.87;100.00
10127;BME280;13080;42.608;23.362;2023-02-16T04:22:30;150134.22;;;-3.88;100.00
10127;BME280;13080;42.608;23.362;2023-02-16T04:24:57;150152.16;;;-3.81;100.00
10127;BME280;13080;42.608;23.362;2023-02-16T04:27:25;150152.16;;;-3.81;100.00
10127;BME280;13080;42.608;23.362;2023-02-16T04:29:51;150150.84;;;-3.81;100.00
10127;BME280;13080;42.608;23.362;2023-02-16T04:32:18;150153.44;;;-3.80;100.00
10127;BME280;13080;42.608;23.362;2023-02-16T04:34:45;150155.97;;;-3.79;100.00
10127;BME280;13080;42.608;23.362;2023-02-16T04:37:11;150165.00;;;-3.76;100.00
10127;BME280;13080;42.608;23.362;2023-02-16T04:39:38;150174.00;;;-3.72;100.00
10127;BME280;13080;42.608;23.362;2023-02-16T04:42:05;150182.94;;;-3.68;100.00
10127;BME280;13080;42.608;23.362;2023-02-16T04:44:33;150190.69;;;-3.65;100.00
10127;BME280;13080;42.608;23.362;2023-02-16T04:47:00;150209.91;;;-3.58;100.00
10127;BME280;13080;42.608;23.362;2023-02-16T04:49:27;150204.78;;;-3.60;100.00
10127;BME280;13080;42.608;23.362;2023-02-16T04:51:53;150197.09;;;-3.63;100.00
10127;BME280;13080;42.608;23.362;2023-02-16T04:54:20;150195.78;;;-3.63;100.00
10127;BME280;13080;42.608;23.362;2023-02-16T04:56:47;150190.69;;;-3.65;100.00
10127;BME280;13080;42.608;23.362;2023-02-16T04:59:15;150188.09;;;-3.66;100.00
10127;BME280;13080;42.608;23.362;2023-02-16T05:01:43;150188.09;;;-3.66;100.00
10127;BME280;13080;42.608;23.362;2023-02-16T05:04:10;150184.22;;;-3.68;100.00
10127;BME280;13080;42.608;23.362;2023-02-16T05:06:37;150185.53;;;-3.67;100.00
10127;BME280;13080;42.608;23.362;2023-02-16T05:09:05;150180.41;;;-3.69;100.00
10127;BME280;13080;42.608;23.362;2023-02-16T05:11:32;150185.53;;;-3.67;100.00
10127;BME280;13080;42.608;23.362;2023-02-16T05:14:19;150176.53;;;-3.71;100.00
10127;BME280;13080;42.608;23.362;2023-02-16T05:17:04;150163.72;;;-3.76;100.00
10127;BME280;13080;42.608;23.362;2023-02-16T05:19:31;150181.69;;;-3.69;100.00
10127;BME280;13080;42.608;23.362;2023-02-16T05:21:58;150180.41;;;-3.69;100.00
10127;BME280;13080;42.608;23.362;2023-02-16T05:24:25;150179.13;;;-3.70;100.00
10127;BME280;13080;42.608;23.362;2023-02-16T05:26:52;150179.13;;;-3.70;100.00
10127;BME280;13080;42.608;23.362;2023-02-16T05:29:18;150174.00;;;-3.72;100.00
10127;BME280;13080;42.608;23.362;2023-02-16T05:31:45;150182.94;;;-3.68;100.00
10127;BME280;13080;42.608;23.362;2023-02-16T05:34:13;150186.81;;;-3.67;100.00
10127;BME280;13080;42.608;23.362;2023-02-16T05:36:40;150191.97;;;-3.65;100.00
10127;BME280;13080;42.608;23.362;2023-02-16T05:39:07;150197.09;;;-3.63;100.00
10127;BME280;13080;42.608;23.362;2023-02-16T05:41:33;150221.47;;;-3.53;100.00
10127;BME280;13080;42.608;23.362;2023-02-16T05:44:01;150218.91;;;-3.54;100.00
10127;BME280;13080;42.608;23.362;2023-02-16T05:46:31;150239.44;;;-3.46;100.00
10127;BME280;13080;42.608;23.362;2023-02-16T05:48:58;150254.84;;;-3.40;100.00
10127;BME280;13080;42.608;23.362;2023-02-16T05:51:26;150265.13;;;-3.36;100.00
10127;BME280;13080;42.608;23.362;2023-02-16T05:53:53;150283.09;;;-3.28;100.00
10127;BME280;13080;42.608;23.362;2023-02-16T05:56:20;150297.25;;;-3.23;100.00
10127;BME280;13080;42.608;23.362;2023-02-16T05:58:47;150311.34;;;-3.17;100.00
10127;BME280;13080;42.608;23.362;2023-02-16T06:01:14;150330.59;;;-3.09;100.00
10127;BME280;13080;42.608;23.362;2023-02-16T06:03:41;150361.44;;;-2.97;100.00
10127;BME280;13080;42.608;23.362;2023-02-16T06:06:08;150392.25;;;-2.85;100.00
10127;BME280;13080;42.608;23.362;2023-02-16T06:08:37;150401.25;;;-2.81;100.00
10127;BME280;13080;42.608;23.362;2023-02-16T06:11:04;150421.84;;;-2.73;100.00
10127;BME280;13080;42.608;23.362;2023-02-16T06:13:51;150433.38;;;-2.68;100.00
10127;BME280;13080;42.608;23.362;2023-02-16T06:16:19;150453.91;;;-2.60;100.00
10127;BME280;13080;42.608;23.362;2023-02-16T06:18:46;150479.63;;;-2.50;100.00
10127;BME280;13080;42.608;23.362;2023-02-16T06:21:13;150486.06;;;-2.47;100.00
10127;BME280;13080;42.608;23.362;2023-02-16T06:23:41;150492.47;;;-2.45;100.00
10127;BME280;13080;42.608;23.362;2023-02-16T06:26:07;150501.47;;;-2.41;100.00
10127;BME280;13080;42.608;23.362;2023-02-16T06:28:34;150516.91;;;-2.35;100.00
10127;BME280;13080;42.608;23.362;2023-02-16T06:31:01;150563.19;;;-2.17;100.00
10127;BME280;13080;42.608;23.362;2023-02-16T06:33:28;150523.34;;;-2.33;100.00
10127;BME280;13080;42.608;23.362;2023-02-16T06:35:54;150538.72;;;-2.26;100.00
10127;BME280;13080;42.608;23.362;2023-02-16T06:38:21;150527.16;;;-2.31;100.00
10127;BME280;13080;42.608;23.362;2023-02-16T06:40:52;150523.34;;;-2.33;100.00
10127;BME280;13080;42.608;23.362;2023-02-16T06:43:19;150551.63;;;-2.21;100.00
10127;BME280;13080;42.608;23.362;2023-02-16T06:45:46;150550.34;;;-2.22;99.49
10127;BME280;13080;42.608;23.362;2023-02-16T06:48:13;150532.31;;;-2.29;99.32
10127;BME280;13080;42.608;23.362;2023-02-16T06:50:40;150520.75;;;-2.34;99.00
10127;BME280;13080;42.608;23.362;2023-02-16T06:53:07;150531.03;;;-2.30;100.00
10127;BME280;13080;42.608;23.362;2023-02-16T06:55:34;150531.03;;;-2.30;99.70
10127;BME280;13080;42.608;23.362;2023-02-16T06:58:03;150532.31;;;-2.29;100.00
10127;BME280;13080;42.608;23.362;2023-02-16T07:00:30;150545.19;;;-2.24;100.00
10127;BME280;13080;42.608;23.362;2023-02-16T07:02:57;150576.00;;;-2.12;99.54
10127;BME280;13080;42.608;23.362;2023-02-16T07:05:24;150577.28;;;-2.11;99.59
10127;BME280;13080;42.608;23.362;2023-02-16T07:07:51;150599.16;;;-2.02;99.47
10127;BME280;13080;42.608;23.362;2023-02-16T07:10:18;150621.00;;;-1.94;99.16
10127;BME280;13080;42.608;23.362;2023-02-16T07:12:45;150632.56;;;-1.89;98.55
10127;BME280;13080;42.608;23.362;2023-02-16T07:15:13;150644.16;;;-1.84;98.62
10127;BME280;13080;42.608;23.362;2023-02-16T07:17:40;150672.44;;;-1.73;98.29
10127;BME280;13080;42.608;23.362;2023-02-16T07:20:07;150675.03;;;-1.72;98.41
10127;BME280;13080;42.608;23.362;2023-02-16T07:22:36;150704.59;;;-1.60;98.46
10127;BME280;13080;42.608;23.362;2023-02-16T07:25:03;150717.44;;;-1.55;98.15
10127;BME280;13080;42.608;23.362;2023-02-16T07:27:29;150744.44;;;-1.44;98.01
10127;BME280;13080;42.608;23.362;2023-02-16T07:29:56;150795.91;;;-1.24;97.56
10127;BME280;13080;42.608;23.362;2023-02-16T07:32:24;150820.38;;;-1.14;98.09
10127;BME280;13080;42.608;23.362;2023-02-16T07:34:51;150860.25;;;-0.98;97.65
10127;BME280;13080;42.608;23.362;2023-02-16T07:37:18;150882.13;;;-0.90;97.87
10127;BME280;13080;42.608;23.362;2023-02-16T07:39:45;150883.41;;;-0.89;97.92
10127;BME280;13080;42.608;23.362;2023-02-16T07:42:11;150889.84;;;-0.87;97.14
10127;BME280;13080;42.608;23.362;2023-02-16T07:44:38;150897.53;;;-0.84;97.19
10127;BME280;13080;42.608;23.362;2023-02-16T07:47:05;150938.75;;;-0.67;96.33
10127;BME280;13080;42.608;23.362;2023-02-16T07:49:33;150951.59;;;-0.62;95.47
10127;BME280;13080;42.608;23.362;2023-02-16T07:52:00;150979.94;;;-0.51;93.01
10127;BME280;13080;42.608;23.362;2023-02-16T07:54:26;150992.78;;;-0.46;92.83
10127;BME280;13080;42.608;23.362;2023-02-16T07:56:53;151006.97;;;-0.40;92.47
10127;BME280;13080;42.608;23.362;2023-02-16T07:59:20;151044.28;;;-0.25;90.91
10127;BME280;13080;42.608;23.362;2023-02-16T08:01:46;151053.31;;;-0.22;90.03
10127;BME280;13080;42.608;23.362;2023-02-16T08:04:13;151075.19;;;-0.13;89.53
10127;BME280;13080;42.608;23.362;2023-02-16T08:06:41;151070.03;;;-0.15;89.26
10127;BME280;13080;42.608;23.362;2023-02-16T08:09:10;151104.81;;;-0.01;88.83
10127;BME280;13080;42.608;23.362;2023-02-16T08:11:37;151142.16;;;0.14;86.90
10127;BME280;13080;42.608;23.362;2023-02-16T08:14:03;151146.00;;;0.15;86.65
10127;BME280;13080;42.608;23.362;2023-02-16T08:16:30;151151.16;;;0.17;86.34
10127;BME280;13080;42.608;23.362;2023-02-16T08:18:58;151165.34;;;0.23;86.44
10127;BME280;13080;42.608;23.362;2023-02-16T08:21:27;151175.66;;;0.27;85.83
10127;BME280;13080;42.608;23.362;2023-02-16T08:23:58;151171.78;;;0.26;86.26
10127;BME280;13080;42.608;23.362;2023-02-16T08:26:27;151218.16;;;0.44;85.89
10127;BME280;13080;42.608;23.362;2023-02-16T08:28:56;151209.16;;;0.40;85.89
10127;BME280;13080;42.608;23.362;2023-02-16T08:31:25;151206.56;;;0.39;85.73
10127;BME280;13080;42.608;23.362;2023-02-16T08:33:53;151238.78;;;0.52;85.76
10127;BME280;13080;42.608;23.362;2023-02-16T08:36:22;151260.69;;;0.61;85.47
10127;BME280;13080;42.608;23.362;2023-02-16T08:38:50;151300.63;;;0.77;84.70
10127;BME280;13080;42.608;23.362;2023-02-16T08:41:20;151307.06;;;0.79;85.93
10127;BME280;13080;42.608;23.362;2023-02-16T08:43:47;151312.22;;;0.81;85.82
10127;BME280;13080;42.608;23.362;2023-02-16T08:46:14;151323.81;;;0.86;86.29
10127;BME280;13080;42.608;23.362;2023-02-16T08:48:41;151368.91;;;1.04;85.42
10127;BME280;13080;42.608;23.362;2023-02-16T08:51:12;151406.31;;;1.19;84.19
10127;BME280;13080;42.608;23.362;2023-02-16T08:53:40;151386.94;;;1.11;85.41
10127;BME280;13080;42.608;23.362;2023-02-16T08:56:06;151414.03;;;1.22;85.19
10127;BME280;13080;42.608;23.362;2023-02-16T08:58:36;151415.31;;;1.22;85.99
10127;BME280;13080;42.608;23.362;2023-02-16T09:01:04;151414.03;;;1.22;86.34
10127;BME280;13080;42.608;23.362;2023-02-16T09:03:32;151441.13;;;1.33;85.66
10127;BME280;13080;42.608;23.362;2023-02-16T09:06:02;151456.53;;;1.39;85.63
10127;BME280;13080;42.608;23.362;2023-02-16T09:08:29;151477.19;;;1.47;84.39
10127;BME280;13080;42.608;23.362;2023-02-16T09:11:00;151473.31;;;1.45;84.33
10127;BME280;13080;42.608;23.362;2023-02-16T09:13:26;151483.63;;;1.50;83.95
10127;BME280;13080;42.608;23.362;2023-02-16T09:16:00;151504.28;;;1.58;83.67
10127;BME280;13080;42.608;23.362;2023-02-16T09:18:27;151509.44;;;1.60;84.18
10127;BME280;13080;42.608;23.362;2023-02-16T09:20:54;151554.56;;;1.78;83.57
10127;BME280;13080;42.608;23.362;2023-02-16T09:23:21;151581.69;;;1.89;83.18
10127;BME280;13080;42.608;23.362;2023-02-16T09:25:48;151604.88;;;1.98;81.33
10127;BME280;13080;42.608;23.362;2023-02-16T09:28:15;151619.06;;;2.03;81.14
10127;BME280;13080;42.608;23.362;2023-02-16T09:30:42;151619.06;;;2.03;82.23
10127;BME280;13080;42.608;23.362;2023-02-16T09:33:10;151634.53;;;2.10;82.32
10127;BME280;13080;42.608;23.362;2023-02-16T09:35:37;151655.19;;;2.18;81.66
10127;BME280;13080;42.608;23.362;2023-02-16T09:38:04;151673.25;;;2.25;79.66
10127;BME280;13080;42.608;23.362;2023-02-16T09:40:32;151695.19;;;2.34;80.34
10127;BME280;13080;42.608;23.362;2023-02-16T09:43:07;151700.38;;;2.36;80.64
10127;BME280;13080;42.608;23.362;2023-02-16T09:45:42;151711.97;;;2.40;81.25
10127;BME280;13080;42.608;23.362;2023-02-16T09:48:20;151733.91;;;2.49;80.22
10127;BME280;13080;42.608;23.362;2023-02-16T09:50:49;151739.03;;;2.51;79.98
10127;BME280;13080;42.608;23.362;2023-02-16T09:53:20;151744.19;;;2.53;80.53
10127;BME280;13080;42.608;23.362;2023-02-16T09:55:53;151764.88;;;2.61;81.44
10127;BME280;13080;42.608;23.362;2023-02-16T09:58:28;151802.31;;;2.76;79.41
10127;BME280;13080;42.608;23.362;2023-02-16T10:01:02;151793.25;;;2.73;79.74
10127;BME280;13080;42.608;23.362;2023-02-16T10:03:47;151824.25;;;2.85;77.50
10127;BME280;13080;42.608;23.362;2023-02-16T10:06:29;151826.81;;;2.86;78.33
10127;BME280;13080;42.608;23.362;2023-02-16T10:09:02;151860.38;;;2.99;78.03
10127;BME280;13080;42.608;23.362;2023-02-16T10:11:31;151893.97;;;3.12;77.19
10127;BME280;13080;42.608;23.362;2023-02-16T10:14:24;151875.91;;;3.05;76.68
10127;BME280;13080;42.608;23.362;2023-02-16T10:17:00;151875.91;;;3.05;78.59
10127;BME280;13080;42.608;23.362;2023-02-16T10:19:36;151919.75;;;3.23;76.78
10127;BME280;13080;42.608;23.362;2023-02-16T10:22:07;151904.28;;;3.17;75.91
10127;BME280;13080;42.608;23.362;2023-02-16T10:24:46;151908.13;;;3.18;76.43
10127;BME280;13080;42.608;23.362;2023-02-16T10:27:16;151939.16;;;3.30;76.23
10127;BME280;13080;42.608;23.362;2023-02-16T10:29:43;151959.81;;;3.39;76.86
10127;BME280;13080;42.608;23.362;2023-02-16T10:32:18;151981.75;;;3.47;75.63
10127;BME280;13080;42.608;23.362;2023-02-16T10:34:51;152010.16;;;3.59;75.15
10127;BME280;13080;42.608;23.362;2023-02-16T10:37:36;152017.94;;;3.62;75.56
10127;BME280;13080;42.608;23.362;2023-02-16T10:40:19;152061.88;;;3.79;73.48
10127;BME280;13080;42.608;23.362;2023-02-16T10:42:52;152076.06;;;3.85;73.09
10127;BME280;13080;42.608;23.362;2023-02-16T10:45:26;152063.16;;;3.80;74.26
10127;BME280;13080;42.608;23.362;2023-02-16T10:47:56;152061.88;;;3.79;74.01
10127;BME280;13080;42.608;23.362;2023-02-16T10:50:26;152052.81;;;3.75;74.36
10127;BME280;13080;42.608;23.362;2023-02-16T10:52:57;152068.31;;;3.82;75.05
10127;BME280;13080;42.608;23.362;2023-02-16T10:55:25;152090.28;;;3.90;73.85
10127;BME280;13080;42.608;23.362;2023-02-16T10:57:54;152121.28;;;4.03;73.71
10127;BME280;13080;42.608;23.362;2023-02-16T11:00:28;152147.13;;;4.13;73.58
10127;BME280;13080;42.608;23.362;2023-02-16T11:03:01;152141.97;;;4.11;72.83
10127;BME280;13080;42.608;23.362;2023-02-16T11:05:34;152157.47;;;4.17;72.16
10127;BME280;13080;42.608;23.362;2023-02-16T11:08:03;152170.41;;;4.22;72.56
10127;BME280;13080;42.608;23.362;2023-02-16T11:10:36;152200.09;;;4.34;71.89
10127;BME280;13080;42.608;23.362;2023-02-16T11:13:04;152172.97;;;4.23;72.16
10127;BME280;13080;42.608;23.362;2023-02-16T11:15:33;152167.78;;;4.21;72.71
10127;BME280;13080;42.608;23.362;2023-02-16T11:18:04;152192.38;;;4.31;72.54
10127;BME280;13080;42.608;23.362;2023-02-16T11:20:35;152224.66;;;4.44;72.00
10127;BME280;13080;42.608;23.362;2023-02-16T11:23:21;152236.28;;;4.48;71.52
10127;BME280;13080;42.608;23.362;2023-02-16T11:25:55;152250.53;;;4.54;71.04
10127;BME280;13080;42.608;23.362;2023-02-16T11:28:26;152258.25;;;4.57;71.73
10127;BME280;13080;42.608;23.362;2023-02-16T11:30:59;152282.84;;;4.67;71.32
10127;BME280;13080;42.608;23.362;2023-02-16T11:33:27;152308.69;;;4.77;70.12
10127;BME280;13080;42.608;23.362;2023-02-16T11:35:55;152324.22;;;4.83;70.10
10127;BME280;13080;42.608;23.362;2023-02-16T11:38:25;152324.22;;;4.83;69.91
10127;BME280;13080;42.608;23.362;2023-02-16T11:40:52;152334.56;;;4.87;69.86
10127;BME280;13080;42.608;23.362;2023-02-16T11:43:19;152337.13;;;4.88;70.41
10127;BME280;13080;42.608;23.362;2023-02-16T11:45:56;152356.53;;;4.96;69.32
10127;BME280;13080;42.608;23.362;2023-02-16T11:48:25;152375.91;;;5.04;68.75
10127;BME280;13080;42.608;23.362;2023-02-16T11:50:58;152391.44;;;5.10;68.17
10127;BME280;13080;42.608;23.362;2023-02-16T11:53:27;152421.19;;;5.21;69.10
10127;BME280;13080;42.608;23.362;2023-02-16T11:56:16;152432.81;;;5.26;67.77
10127;BME280;13080;42.608;23.362;2023-02-16T11:59:03;152449.63;;;5.33;66.34
10127;BME280;13080;42.608;23.362;2023-02-16T12:01:39;152460.00;;;5.37;66.43
10127;BME280;13080;42.608;23.362;2023-02-16T12:04:18;152458.72;;;5.36;67.00
10127;BME280;13080;42.608;23.362;2023-02-16T12:06:59;152467.75;;;5.40;66.85
10127;BME280;13080;42.608;23.362;2023-02-16T12:09:34;152488.44;;;5.48;66.49
10127;BME280;13080;42.608;23.362;2023-02-16T12:12:10;152507.84;;;5.56;66.09
10127;BME280;13080;42.608;23.362;2023-02-16T12:14:51;152504.00;;;5.54;66.20
10127;BME280;13080;42.608;23.362;2023-02-16T12:17:41;152536.31;;;5.67;64.47
10127;BME280;13080;42.608;23.362;2023-02-16T12:20:21;152566.09;;;5.79;64.51
10127;BME280;13080;42.608;23.362;2023-02-16T12:22:58;152604.97;;;5.94;63.25
10127;BME280;13080;42.608;23.362;2023-02-16T12:25:33;152593.28;;;5.90;63.43
10127;BME280;13080;42.608;23.362;2023-02-16T12:28:12;152579.03;;;5.84;63.50
10127;BME280;13080;42.608;23.362;2023-02-16T12:30:52;152588.09;;;5.88;63.74
10127;BME280;13080;42.608;23.362;2023-02-16T12:33:34;152602.31;;;5.93;63.53
10127;BME280;13080;42.608;23.362;2023-02-16T12:36:16;152633.44;;;6.06;62.81
10127;BME280;13080;42.608;23.362;2023-02-16T12:38:58;152664.47;;;6.18;61.97
10127;BME280;13080;42.608;23.362;2023-02-16T12:41:40;152645.09;;;6.10;62.50
10127;BME280;13080;42.608;23.362;2023-02-16T12:44:14;152660.59;;;6.16;62.05
10127;BME280;13080;42.608;23.362;2023-02-16T12:46:43;152674.84;;;6.22;61.48
10127;BME280;13080;42.608;23.362;2023-02-16T12:49:15;152656.72;;;6.15;62.53
10127;BME280;13080;42.608;23.362;2023-02-16T12:51:48;152674.84;;;6.22;61.05
10127;BME280;13080;42.608;23.362;2023-02-16T12:54:21;152705.88;;;6.34;60.59
10127;BME280;13080;42.608;23.362;2023-02-16T12:56:56;152685.22;;;6.26;61.69
10127;BME280;13080;42.608;23.362;2023-02-16T12:59:29;152685.22;;;6.26;62.51
10127;BME280;13080;42.608;23.362;2023-02-16T13:01:59;152714.97;;;6.38;60.63
10127;BME280;13080;42.608;23.362;2023-02-16T13:04:36;152699.44;;;6.32;61.35
10127;BME280;13080;42.608;23.362;2023-02-16T13:07:06;152744.72;;;6.50;60.91